createdAt,value
2024-03-11T00:00:58.738Z,100.00
2024-03-11T00:04:00.394Z,100.00
2024-03-11T00:07:04.705Z,100.00
2024-03-11T00:10:12.772Z,100.00
2024-03-11T00:13:17.436Z,100.00
2024-03-11T00:16:19.012Z,100.00
2024-03-11T00:19:20.454Z,100.00
2024-03-11T00:22:22.151Z,100.00
2024-03-11T00:25:23.723Z,100.00
2024-03-11T00:28:25.179Z,100.00
2024-03-11T00:31:30.573Z,100.00
2024-03-11T00:34:33.766Z,100.00
2024-03-11T00:37:35.950Z,100.00
2024-03-11T00:40:38.042Z,100.00
2024-03-11T00:43:39.498Z,100.00
2024-03-11T00:46:41.297Z,100.00
2024-03-11T00:49:42.975Z,100.00
2024-03-11T00:52:45.926Z,100.00
2024-03-11T00:55:47.615Z,100.00
2024-03-11T00:58:49.364Z,100.00
2024-03-11T01:01:51.484Z,100.00
2024-03-11T01:04:53.699Z,100.00
2024-03-11T01:07:55.133Z,100.00
2024-03-11T01:10:59.851Z,100.00
2024-03-11T01:14:01.391Z,100.00
2024-03-11T01:17:03.374Z,100.00
2024-03-11T01:20:07.996Z,100.00
2024-03-11T01:23:09.669Z,100.00
2024-03-11T01:26:11.184Z,100.00
2024-03-11T01:29:13.278Z,100.00
2024-03-11T01:32:14.756Z,100.00
2024-03-11T01:35:16.452Z,100.00
2024-03-11T01:38:19.281Z,100.00
2024-03-11T01:41:20.829Z,100.00
2024-03-11T01:44:23.025Z,100.00
2024-03-11T01:47:26.352Z,100.00
2024-03-11T01:50:28.010Z,100.00
2024-03-11T01:53:29.874Z,100.00
2024-03-11T01:56:32.760Z,100.00
2024-03-11T01:59:39.068Z,100.00
2024-03-11T02:02:41.075Z,100.00
2024-03-11T02:05:44.317Z,100.00
2024-03-11T02:08:45.894Z,100.00
2024-03-11T02:11:48.321Z,100.00
2024-03-11T02:14:50.050Z,100.00
2024-03-11T02:17:51.610Z,100.00
2024-03-11T02:20:53.186Z,100.00
2024-03-11T02:23:54.695Z,100.00
2024-03-11T02:26:56.174Z,100.00
2024-03-11T02:29:57.629Z,100.00
2024-03-11T02:32:59.880Z,100.00
2024-03-11T02:36:02.392Z,100.00
2024-03-11T02:39:06.352Z,100.00
2024-03-11T02:42:07.880Z,100.00
2024-03-11T02:45:12.830Z,100.00
2024-03-11T02:48:14.410Z,100.00
2024-03-11T02:51:15.924Z,100.00
2024-03-11T02:54:17.791Z,100.00
2024-03-11T02:57:19.238Z,100.00
2024-03-11T03:00:21.330Z,100.00
2024-03-11T03:03:22.881Z,100.00
2024-03-11T03:06:24.351Z,100.00
2024-03-11T03:09:25.893Z,100.00
2024-03-11T03:12:30.551Z,100.00
2024-03-11T03:15:32.212Z,100.00
2024-03-11T03:18:35.303Z,100.00
2024-03-11T03:21:37.085Z,100.00
2024-03-11T03:24:38.493Z,100.00
2024-03-11T03:27:40.117Z,100.00
2024-03-11T03:30:41.586Z,100.00
2024-03-11T03:33:43.036Z,100.00
2024-03-11T03:36:44.533Z,100.00
2024-03-11T03:39:46.011Z,100.00
2024-03-11T03:42:48.588Z,100.00
2024-03-11T03:45:50.077Z,100.00
2024-03-11T03:48:52.604Z,100.00
2024-03-11T03:51:54.021Z,100.00
2024-03-11T03:54:55.709Z,100.00
2024-03-11T03:57:57.162Z,100.00
2024-03-11T04:01:00.714Z,100.00
2024-03-11T04:04:02.211Z,100.00
2024-03-11T04:07:04.311Z,100.00
2024-03-11T04:10:06.528Z,100.00
2024-03-11T04:13:08.106Z,100.00
2024-03-11T04:16:12.990Z,100.00
2024-03-11T04:19:14.738Z,100.00
2024-03-11T04:22:16.238Z,100.00
2024-03-11T04:25:26.623Z,100.00
2024-03-11T04:28:29.726Z,100.00
2024-03-11T04:31:34.072Z,100.00
2024-03-11T04:34:39.896Z,100.00
2024-03-11T04:37:41.360Z,100.00
2024-03-11T04:40:48.458Z,100.00
2024-03-11T04:43:50.281Z,100.00
2024-03-11T04:46:51.892Z,100.00
2024-03-11T04:49:53.333Z,100.00
2024-03-11T04:52:56.421Z,100.00
2024-03-11T04:55:58.057Z,100.00
2024-03-11T04:59:00.780Z,100.00
2024-03-11T05:02:02.694Z,100.00
2024-03-11T05:05:04.519Z,100.00
2024-03-11T05:08:07.115Z,100.00
2024-03-11T05:11:09.116Z,100.00
2024-03-11T05:14:10.636Z,100.00
2024-03-11T05:17:14.068Z,100.00
2024-03-11T05:20:16.311Z,100.00
2024-03-11T05:23:18.443Z,100.00
2024-03-11T05:26:19.929Z,100.00
2024-03-11T05:29:21.481Z,100.00
2024-03-11T05:32:22.935Z,100.00
2024-03-11T05:35:25.917Z,100.00
2024-03-11T05:38:27.800Z,100.00
2024-03-11T05:41:29.640Z,100.00
2024-03-11T05:44:31.134Z,100.00
2024-03-11T05:47:32.639Z,100.00
2024-03-11T05:50:34.282Z,100.00
2024-03-11T05:53:38.349Z,100.00
2024-03-11T05:56:39.877Z,100.00
2024-03-11T05:59:41.425Z,100.00
2024-03-11T06:02:43.604Z,100.00
2024-03-11T06:05:45.577Z,100.00
2024-03-11T06:08:47.681Z,100.00
2024-03-11T06:11:50.246Z,100.00
2024-03-11T06:14:52.531Z,100.00
2024-03-11T06:17:54.457Z,100.00
2024-03-11T06:20:56.141Z,100.00
2024-03-11T06:24:00.255Z,100.00
2024-03-11T06:27:01.726Z,100.00
2024-03-11T06:30:04.182Z,100.00
2024-03-11T06:33:10.666Z,100.00
2024-03-11T06:36:15.232Z,100.00
2024-03-11T06:39:17.880Z,100.00
2024-03-11T06:42:19.369Z,100.00
2024-03-11T06:45:21.326Z,100.00
2024-03-11T06:48:23.888Z,100.00
2024-03-11T06:51:25.720Z,100.00
2024-03-11T06:54:27.254Z,100.00
2024-03-11T06:57:28.705Z,100.00
2024-03-11T07:00:30.205Z,100.00
2024-03-11T07:03:31.758Z,100.00
2024-03-11T07:06:33.201Z,100.00
2024-03-11T07:09:35.261Z,100.00
2024-03-11T07:12:36.848Z,100.00
2024-03-11T07:15:38.330Z,100.00
2024-03-11T07:18:43.187Z,100.00
2024-03-11T07:21:46.501Z,100.00
2024-03-11T07:24:48.009Z,100.00
2024-03-11T07:27:49.848Z,100.00
2024-03-11T07:30:52.426Z,100.00
2024-03-11T07:33:53.987Z,100.00
2024-03-11T07:36:57.175Z,100.00
2024-03-11T07:39:58.759Z,100.00
2024-03-11T07:43:00.632Z,100.00
2024-03-11T07:46:04.884Z,100.00
2024-03-11T07:49:12.467Z,100.00
2024-03-11T07:52:14.322Z,100.00
2024-03-11T07:55:15.839Z,100.00
2024-03-11T07:58:17.449Z,100.00
2024-03-11T08:01:22.464Z,100.00
2024-03-11T08:04:25.509Z,100.00
2024-03-11T08:07:26.999Z,100.00
2024-03-11T08:10:28.946Z,100.00
2024-03-11T08:13:32.208Z,100.00
2024-03-11T08:16:35.011Z,100.00
2024-03-11T08:19:36.555Z,100.00
2024-03-11T08:22:48.638Z,100.00
2024-03-11T08:25:52.544Z,100.00
2024-03-11T08:28:54.139Z,100.00
2024-03-11T08:31:55.644Z,100.00
2024-03-11T08:34:57.995Z,100.00
2024-03-11T08:37:59.912Z,100.00
2024-03-11T08:41:02.021Z,100.00
2024-03-11T08:44:03.616Z,100.00
2024-03-11T08:47:10.240Z,100.00
2024-03-11T08:50:18.076Z,100.00
2024-03-11T08:53:20.304Z,100.00
2024-03-11T08:56:22.713Z,100.00
2024-03-11T08:59:24.361Z,100.00
2024-03-11T09:02:28.787Z,100.00
2024-03-11T09:05:30.387Z,100.00
2024-03-11T09:08:31.866Z,100.00
2024-03-11T09:11:33.588Z,100.00
2024-03-11T09:14:35.243Z,100.00
2024-03-11T09:17:36.725Z,100.00
2024-03-11T09:20:38.190Z,100.00
2024-03-11T09:23:39.638Z,100.00
2024-03-11T09:26:41.173Z,100.00
2024-03-11T09:29:42.717Z,100.00
2024-03-11T09:32:45.834Z,100.00
2024-03-11T09:35:48.672Z,100.00
2024-03-11T09:38:50.159Z,100.00
2024-03-11T09:41:55.302Z,100.00
2024-03-11T09:44:57.529Z,100.00
2024-03-11T09:48:01.049Z,100.00
2024-03-11T09:51:03.944Z,100.00
2024-03-11T09:54:06.629Z,100.00
2024-03-11T09:57:08.261Z,100.00
2024-03-11T10:00:14.125Z,100.00
2024-03-11T10:03:26.092Z,100.00
2024-03-11T10:06:28.401Z,100.00
2024-03-11T10:09:32.846Z,100.00
2024-03-11T10:12:35.563Z,100.00
2024-03-11T10:15:37.243Z,100.00
2024-03-11T10:18:38.816Z,100.00
2024-03-11T10:21:41.706Z,100.00
2024-03-11T10:24:45.979Z,100.00
2024-03-11T10:27:48.827Z,100.00
2024-03-11T10:30:51.303Z,100.00
2024-03-11T10:33:55.140Z,100.00
2024-03-11T10:36:58.816Z,100.00
2024-03-11T10:40:05.283Z,100.00
2024-03-11T10:43:23.961Z,100.00
2024-03-11T10:46:25.390Z,100.00
2024-03-11T10:49:28.517Z,100.00
2024-03-11T10:52:34.494Z,100.00
2024-03-11T10:55:39.808Z,100.00
2024-03-11T10:58:43.723Z,100.00
2024-03-11T11:01:55.384Z,100.00
2024-03-11T11:04:59.085Z,100.00
2024-03-11T11:08:03.570Z,100.00
2024-03-11T11:11:06.647Z,100.00
2024-03-11T11:14:12.480Z,100.00
2024-03-11T11:17:18.313Z,100.00
2024-03-11T11:20:32.315Z,100.00
2024-03-11T11:23:36.695Z,99.28
2024-03-11T11:26:42.417Z,95.56
2024-03-11T11:29:44.196Z,96.50
2024-03-11T11:32:45.875Z,91.92
2024-03-11T11:35:47.391Z,90.03
2024-03-11T11:38:50.005Z,90.78
2024-03-11T11:41:54.747Z,91.85
2024-03-11T11:44:58.217Z,90.36
2024-03-11T11:48:14.099Z,81.28
2024-03-11T11:51:15.597Z,86.06
2024-03-11T11:54:35.796Z,90.28
2024-03-11T11:57:40.233Z,90.31
2024-03-11T12:00:45.400Z,89.04
2024-03-11T12:03:47.768Z,88.34
2024-03-11T12:06:51.016Z,89.85
2024-03-11T12:09:57.371Z,86.47
2024-03-11T12:12:59.404Z,84.52
2024-03-11T12:16:21.706Z,85.50
2024-03-11T12:19:23.242Z,88.42
2024-03-11T12:22:26.667Z,81.65
2024-03-11T12:25:29.718Z,80.35
2024-03-11T12:28:31.289Z,77.80
2024-03-11T12:31:37.289Z,76.61
2024-03-11T12:34:40.012Z,77.61
2024-03-11T12:37:43.865Z,80.36
2024-03-11T12:40:45.924Z,79.36
2024-03-11T12:43:47.708Z,82.10
2024-03-11T12:46:57.149Z,81.58
2024-03-11T12:49:59.757Z,83.90
2024-03-11T12:53:03.412Z,84.54
2024-03-11T12:56:08.436Z,84.17
2024-03-11T12:59:16.020Z,82.13
2024-03-11T13:02:21.827Z,81.07
2024-03-11T13:05:24.200Z,84.86
2024-03-11T13:08:26.062Z,81.79
2024-03-11T13:11:28.714Z,79.13
2024-03-11T13:14:31.172Z,73.93
2024-03-11T13:17:33.646Z,70.25
2024-03-11T13:20:38.904Z,70.61
2024-03-11T13:23:44.226Z,69.45
2024-03-11T13:26:49.563Z,67.72
2024-03-11T13:29:51.054Z,66.79
2024-03-11T13:32:52.556Z,62.97
2024-03-11T13:35:54.771Z,59.86
2024-03-11T13:38:56.245Z,59.30
2024-03-11T13:42:02.044Z,59.79
2024-03-11T14:45:33.566Z,49.41
2024-03-11T14:48:36.750Z,50.36
2024-03-11T14:51:42.640Z,49.91
2024-03-11T14:54:44.219Z,51.59
2024-03-11T14:57:46.978Z,52.34
2024-03-11T15:00:50.787Z,50.45
2024-03-11T15:03:52.716Z,51.93
2024-03-11T15:06:54.436Z,52.68
2024-03-11T15:10:00.055Z,51.09
2024-03-11T15:13:02.733Z,49.03
2024-03-11T15:16:04.899Z,48.40
2024-03-11T15:19:06.406Z,49.20
2024-03-11T15:22:07.914Z,49.04
2024-03-11T15:25:10.234Z,51.38
2024-03-11T15:28:13.576Z,52.75
2024-03-11T15:31:15.010Z,54.46
2024-03-11T15:34:16.771Z,55.31
2024-03-11T15:37:20.148Z,54.39
2024-03-11T15:40:22.393Z,54.64
2024-03-11T15:43:26.041Z,53.35
2024-03-11T15:46:29.339Z,52.59
2024-03-11T15:49:34.128Z,54.26
2024-03-11T15:52:35.757Z,53.04
2024-03-11T15:55:37.272Z,55.12
2024-03-11T15:58:38.746Z,56.60
2024-03-11T16:01:41.740Z,56.38
2024-03-11T16:04:43.374Z,56.83
2024-03-11T16:07:48.981Z,55.36
2024-03-11T16:10:50.507Z,55.37
2024-03-11T16:13:54.288Z,56.12
2024-03-11T16:16:56.482Z,56.10
2024-03-11T16:19:58.581Z,55.74
2024-03-11T16:23:06.775Z,56.13
2024-03-11T16:26:08.388Z,55.77
2024-03-11T16:29:15.653Z,55.99
2024-03-11T16:32:18.420Z,55.98
2024-03-11T16:35:35.563Z,56.95
2024-03-11T16:38:37.097Z,56.98
2024-03-11T16:41:41.496Z,58.40
2024-03-11T16:44:45.403Z,60.06
2024-03-11T16:47:49.990Z,62.19
2024-03-11T16:50:54.140Z,62.93
2024-03-11T16:53:55.621Z,63.42
2024-03-11T16:56:57.037Z,64.72
2024-03-11T16:59:59.744Z,65.78
2024-03-11T17:03:02.390Z,65.86
2024-03-11T17:06:03.968Z,67.35
2024-03-11T17:09:05.611Z,69.34
2024-03-11T17:12:10.720Z,69.31
2024-03-11T17:15:15.258Z,68.49
2024-03-11T17:18:21.291Z,71.09
2024-03-11T17:21:23.061Z,71.57
2024-03-11T17:24:33.441Z,71.84
2024-03-11T17:27:35.624Z,73.36
2024-03-11T17:30:40.884Z,72.06
2024-03-11T17:33:42.449Z,71.39
2024-03-11T17:36:43.939Z,72.11
2024-03-11T17:39:45.468Z,71.57
2024-03-11T17:42:49.552Z,73.70
2024-03-11T17:45:51.411Z,76.66
2024-03-11T17:48:53.029Z,76.07
2024-03-11T17:51:56.392Z,76.74
2024-03-11T17:54:58.614Z,80.90
2024-03-11T17:58:01.135Z,84.68
2024-03-11T18:01:03.213Z,86.84
2024-03-11T18:04:06.324Z,88.25
2024-03-11T18:07:07.993Z,90.67
2024-03-11T18:10:09.828Z,93.69
2024-03-11T18:13:17.765Z,94.11
2024-03-11T18:16:19.335Z,95.65
2024-03-11T18:19:25.432Z,95.03
2024-03-11T18:22:28.389Z,94.39
2024-03-11T18:25:36.477Z,93.49
2024-03-11T18:28:37.988Z,93.43
2024-03-11T18:31:39.532Z,94.99
2024-03-11T18:34:41.030Z,96.89
2024-03-11T18:37:43.005Z,97.56
2024-03-11T18:40:44.691Z,98.37
2024-03-11T18:43:46.132Z,98.94
2024-03-11T18:46:48.205Z,98.91
2024-03-11T18:49:50.850Z,97.40
2024-03-11T18:52:59.703Z,98.65
2024-03-11T18:56:02.852Z,98.92
2024-03-11T18:59:06.962Z,99.62
2024-03-11T19:02:08.826Z,100.00
2024-03-11T19:05:10.283Z,100.00
2024-03-11T19:08:12.297Z,100.00
2024-03-11T19:11:13.793Z,100.00
2024-03-11T19:14:16.284Z,100.00
2024-03-11T19:17:19.802Z,100.00
2024-03-11T19:20:23.155Z,100.00
2024-03-11T19:23:25.023Z,100.00
2024-03-11T19:26:26.518Z,100.00
2024-03-11T19:29:28.200Z,100.00
2024-03-11T19:32:29.857Z,100.00
2024-03-11T19:35:31.609Z,100.00
2024-03-11T19:39:01.083Z,100.00
2024-03-11T19:42:25.434Z,100.00
2024-03-11T19:45:42.424Z,100.00
2024-03-11T19:49:24.794Z,100.00
2024-03-11T19:53:10.011Z,100.00
2024-03-11T19:56:33.087Z,100.00
2024-03-11T20:00:29.525Z,100.00
2024-03-11T20:03:59.361Z,100.00
2024-03-11T20:07:22.274Z,100.00
2024-03-11T20:11:07.343Z,100.00
2024-03-11T20:14:47.153Z,100.00
2024-03-11T20:18:11.004Z,100.00
2024-03-11T20:21:53.891Z,100.00
2024-03-11T20:25:33.322Z,100.00
2024-03-11T20:29:01.901Z,100.00
2024-03-11T20:32:12.273Z,100.00
2024-03-11T20:35:13.796Z,100.00
2024-03-11T20:38:15.370Z,100.00
2024-03-11T20:41:17.310Z,100.00
2024-03-11T20:44:18.776Z,100.00
2024-03-11T20:47:20.308Z,100.00
2024-03-11T20:50:21.855Z,100.00
2024-03-11T20:53:24.334Z,100.00
2024-03-11T20:56:26.088Z,100.00
2024-03-11T20:59:27.593Z,100.00
2024-03-11T21:02:29.156Z,100.00
2024-03-11T21:05:30.632Z,100.00
2024-03-11T21:08:34.960Z,100.00
2024-03-11T21:11:37.433Z,100.00
2024-03-11T21:14:38.902Z,100.00
2024-03-11T21:17:42.545Z,100.00
2024-03-11T21:20:56.802Z,100.00
2024-03-11T21:24:08.374Z,100.00
2024-03-11T21:27:39.437Z,100.00
2024-03-11T21:30:42.832Z,100.00
2024-03-11T21:33:45.169Z,100.00
2024-03-11T21:36:46.741Z,100.00
2024-03-11T21:39:53.781Z,100.00
2024-03-11T21:42:55.757Z,100.00
2024-03-11T21:45:57.579Z,100.00
2024-03-11T21:48:59.094Z,100.00
2024-03-11T21:52:00.760Z,100.00
2024-03-11T21:55:03.059Z,100.00
2024-03-11T21:58:05.019Z,100.00
2024-03-11T22:01:08.143Z,100.00
2024-03-11T22:04:10.019Z,100.00
2024-03-11T22:07:13.331Z,100.00
2024-03-11T22:10:15.600Z,100.00
2024-03-11T22:13:18.823Z,100.00
2024-03-11T22:16:20.291Z,100.00
2024-03-11T22:19:21.739Z,100.00
2024-03-11T22:22:23.159Z,100.00
2024-03-11T22:25:25.337Z,100.00
2024-03-11T22:28:26.865Z,100.00
2024-03-11T22:31:28.306Z,100.00
2024-03-11T22:34:31.281Z,100.00
2024-03-11T22:37:32.722Z,100.00
2024-03-11T22:40:34.678Z,100.00
2024-03-11T22:43:36.820Z,100.00
2024-03-11T22:46:41.079Z,100.00
2024-03-11T22:49:42.641Z,100.00
2024-03-11T22:52:44.253Z,100.00
2024-03-11T22:55:46.046Z,100.00
2024-03-11T22:58:47.912Z,100.00
2024-03-11T23:01:49.817Z,100.00
2024-03-11T23:04:51.750Z,100.00
2024-03-11T23:07:54.393Z,100.00
2024-03-11T23:10:56.902Z,100.00
2024-03-11T23:13:59.216Z,100.00
2024-03-11T23:17:03.139Z,100.00
2024-03-11T23:20:05.006Z,100.00
2024-03-11T23:23:08.991Z,100.00
2024-03-11T23:26:12.107Z,100.00
2024-03-11T23:29:13.680Z,100.00
2024-03-11T23:32:15.353Z,100.00
2024-03-11T23:35:16.844Z,100.00
2024-03-11T23:38:18.283Z,100.00
2024-03-11T23:41:19.810Z,100.00
2024-03-11T23:44:21.362Z,100.00
2024-03-11T23:47:23.594Z,100.00
2024-03-11T23:50:25.614Z,100.00
2024-03-11T23:53:27.987Z,100.00
2024-03-11T23:56:31.323Z,100.00
2024-03-11T23:59:33.502Z,100.00
